Time;durP1;ratioP1;P1;durP2;ratioP2;P2;SDS_P1;SDS_P2;PMS_P1;PMS_P2;Temp;Humidity;BMP_temperature;BMP_pressure;BME280_temperature;BME280_humidity;BME280_pressure;Samples;Min_cycle;Max_cycle;Signal;HPM_P1;HPM_P2
2022/10/02 00:02:36;;;;;;;4.50;1.97;;;11.10;1.00;;;;;;5032434;28;20956;-72
2022/10/02 00:05:06;;;;;;;7.47;2.60;;;11.10;1.00;;;;;;5032638;28;20462;-71
2022/10/02 00:07:40;;;;;;;6.30;3.00;;;11.10;1.00;;;;;;5034797;28;20396;-71
2022/10/02 00:10:21;;;;;;;9.20;2.30;;;11.10;1.00;;;;;;5053197;28;20920;-71
2022/10/02 00:12:52;;;;;;;10.53;2.10;;;11.10;1.00;;;;;;5053321;28;20792;-70
2022/10/02 00:15:23;;;;;;;9.90;2.27;;;11.10;1.00;;;;;;5051100;28;20407;-72
2022/10/02 00:17:53;;;;;;;9.10;2.03;;;11.10;1.00;;;;;;5051660;28;20479;-73
2022/10/02 00:20:26;;;;;;;10.00;2.60;;;11.10;1.00;;;;;;5053054;28;20384;-73
2022/10/02 00:23:21;;;;;;;8.17;2.03;;;11.10;1.00;;;;;;5051516;28;20745;-72
2022/10/02 00:25:57;;;;;;;14.87;2.20;;;11.10;1.00;;;;;;5049946;28;20420;-72
2022/10/02 00:28:42;;;;;;;5.73;2.07;;;11.20;1.00;;;;;;5042626;28;20429;-72
2022/10/02 00:31:20;;;;;;;5.30;2.10;;;11.20;1.00;;;;;;5033345;28;20396;-73
2022/10/02 00:34:02;;;;;;;5.20;2.50;;;11.20;1.00;;;;;;5032429;28;20373;-72
2022/10/02 00:37:03;;;;;;;3.83;2.17;;;11.10;1.00;;;;;;5033078;28;20404;-73
2022/10/02 00:40:07;;;;;;;4.70;1.80;;;11.10;1.00;;;;;;5032124;28;20813;-70
2022/10/02 00:43:04;;;;;;;3.57;1.83;;;11.10;1.00;;;;;;5042004;28;20417;-71
2022/10/02 00:45:53;;;;;;;2.60;1.67;;;11.10;1.00;;;;;;5032185;28;20396;-70
2022/10/02 00:48:52;;;;;;;6.47;1.93;;;11.10;1.00;;;;;;5040525;28;20421;-70
2022/10/02 00:51:29;;;;;;;5.80;1.50;;;11.10;1.00;;;;;;5052254;28;20443;-72
2022/10/02 00:54:23;;;;;;;7.30;2.80;;;11.10;1.00;;;;;;5051152;28;20416;-71
2022/10/02 00:56:57;;;;;;;2.80;2.07;;;11.00;1.00;;;;;;5052396;28;20404;-72
2022/10/02 00:59:26;;;;;;;11.20;2.00;;;11.10;1.00;;;;;;5051763;28;20424;-71
2022/10/02 01:02:13;;;;;;;7.47;2.27;;;11.10;1.00;;;;;;5052825;28;20413;-71
2022/10/02 01:04:40;;;;;;;4.60;1.90;;;11.10;1.00;;;;;;5051849;28;20370;-70
2022/10/02 01:07:08;;;;;;;5.80;2.00;;;11.10;1.00;;;;;;5053224;28;20397;-73
2022/10/02 01:09:35;;;;;;;5.90;1.73;;;11.10;1.00;;;;;;5049966;28;20440;-70
2022/10/02 01:12:02;;;;;;;3.00;1.87;;;11.10;1.00;;;;;;5052399;28;20467;-71
2022/10/02 01:14:36;;;;;;;7.13;2.20;;;11.10;1.00;;;;;;5050840;28;20470;-73
2022/10/02 01:17:20;;;;;;;2.27;2.07;;;11.10;1.00;;;;;;5052649;28;20725;-71
2022/10/02 01:19:45;;;;;;;6.63;2.27;;;11.10;1.00;;;;;;5032427;28;20727;-71
2022/10/02 01:22:17;;;;;;;5.57;1.73;;;11.20;1.00;;;;;;5032880;28;20380;-71
2022/10/02 01:24:56;;;;;;;8.03;2.33;;;11.20;1.00;;;;;;5041555;28;20214;-72
2022/10/02 01:27:23;;;;;;;2.33;1.87;;;11.10;1.00;;;;;;5052242;28;20494;-71
2022/10/02 01:29:54;;;;;;;5.73;1.87;;;11.20;1.00;;;;;;5030899;28;20453;-72
2022/10/02 01:32:24;;;;;;;3.57;2.33;;;11.20;1.00;;;;;;5032857;28;20393;-72
2022/10/02 01:34:52;;;;;;;6.93;2.50;;;11.20;1.00;;;;;;5032278;28;20411;-73
2022/10/02 01:37:21;;;;;;;6.50;1.77;;;11.10;1.00;;;;;;5034989;28;20440;-70
2022/10/02 01:39:46;;;;;;;2.73;1.73;;;11.10;1.00;;;;;;5035761;28;20430;-70
2022/10/02 01:42:13;;;;;;;2.03;1.30;;;11.10;1.00;;;;;;5038782;28;20437;-74
2022/10/02 01:44:38;;;;;;;5.07;2.40;;;11.10;1.00;;;;;;5035010;28;20532;-73
2022/10/02 01:47:11;;;;;;;6.33;2.10;;;11.00;1.00;;;;;;5036878;28;20434;-74
2022/10/02 01:50:03;;;;;;;2.20;2.00;;;11.10;1.00;;;;;;5037800;28;20192;-72
2022/10/02 01:52:31;;;;;;;1.93;1.50;;;11.10;1.00;;;;;;5035954;28;20753;-72
2022/10/02 01:55:21;;;;;;;3.53;2.23;;;11.10;1.00;;;;;;5034895;28;20397;-71
2022/10/02 01:58:11;;;;;;;7.53;2.20;;;11.10;1.00;;;;;;5035842;28;20464;-72
2022/10/02 02:01:29;;;;;;;2.93;2.00;;;11.00;1.00;;;;;;5045075;28;20404;-73
2022/10/02 02:04:11;;;;;;;10.40;2.10;;;11.00;1.00;;;;;;5050799;28;20416;-70
2022/10/02 02:06:54;;;;;;;2.90;1.87;;;10.90;1.00;;;;;;5055141;28;20407;-72
2022/10/02 02:09:37;;;;;;;5.90;3.47;;;10.90;1.00;;;;;;5055398;28;20434;-71
2022/10/02 02:12:23;;;;;;;10.10;1.97;;;10.90;1.00;;;;;;5054504;28;20433;-71
2022/10/02 02:14:57;;;;;;;2.70;1.50;;;10.90;1.00;;;;;;5054452;28;20405;-72
2022/10/02 02:17:30;;;;;;;5.63;1.83;;;10.90;1.00;;;;;;5055316;28;20410;-69
2022/10/02 02:20:07;;;;;;;2.40;2.20;;;11.00;1.00;;;;;;5049266;28;20401;-69
2022/10/02 02:22:38;;;;;;;8.07;2.27;;;10.90;1.00;;;;;;5035009;28;20481;-72
2022/10/02 02:25:09;;;;;;;6.20;1.90;;;10.90;1.00;;;;;;5034416;28;20397;-73
2022/10/02 02:27:45;;;;;;;3.47;1.67;;;10.90;1.00;;;;;;5034349;28;20480;-73
2022/10/02 02:30:13;;;;;;;3.63;1.90;;;10.80;1.00;;;;;;5034801;28;20875;-73
2022/10/02 02:32:45;;;;;;;2.60;2.00;;;10.80;1.00;;;;;;5035359;28;20465;-72
2022/10/02 02:35:32;;;;;;;1.87;1.40;;;10.80;1.00;;;;;;5032874;28;20416;-71
2022/10/02 02:38:07;;;;;;;4.07;1.70;;;10.80;1.00;;;;;;5035238;28;20830;-71
2022/10/02 02:40:37;;;;;;;3.83;2.00;;;10.80;1.00;;;;;;5034057;28;20453;-72
2022/10/02 02:43:26;;;;;;;2.57;1.50;;;10.80;1.00;;;;;;5035188;28;20377;-71
2022/10/02 02:46:02;;;;;;;1.67;1.57;;;10.80;1.00;;;;;;5033964;28;20432;-70
2022/10/02 02:48:45;;;;;;;4.03;2.20;;;10.80;1.00;;;;;;5034841;28;20377;-73
2022/10/02 02:51:22;;;;;;;5.33;2.27;;;10.80;1.00;;;;;;5034266;28;20424;-75
2022/10/02 02:54:05;;;;;;;3.87;1.40;;;10.70;1.00;;;;;;5033934;28;20929;-72
2022/10/02 02:56:32;;;;;;;3.67;1.60;;;10.80;1.00;;;;;;5034751;28;20431;-72
2022/10/02 02:59:06;;;;;;;6.73;2.23;;;10.80;1.00;;;;;;5034279;28;20738;-74
2022/10/02 03:01:31;;;;;;;1.60;1.40;;;10.80;1.00;;;;;;5033867;28;20901;-74
2022/10/02 03:03:57;;;;;;;3.40;1.70;;;10.80;1.00;;;;;;5032597;28;20411;-72
2022/10/02 03:06:35;;;;;;;3.17;2.33;;;10.80;1.00;;;;;;5034561;28;20184;-74
2022/10/02 03:09:01;;;;;;;3.60;1.73;;;10.80;1.00;;;;;;5034471;28;20221;-72
2022/10/02 03:11:35;;;;;;;1.83;1.37;;;10.70;1.00;;;;;;5033199;28;20430;-72
2022/10/02 03:14:07;;;;;;;4.40;1.70;;;10.70;1.00;;;;;;5033241;28;20166;-72
2022/10/02 03:16:50;;;;;;;4.10;2.60;;;10.70;1.00;;;;;;5034103;28;20433;-74
2022/10/02 03:19:31;;;;;;;5.60;2.20;;;10.70;1.00;;;;;;5033079;28;20418;-74
2022/10/02 03:22:06;;;;;;;2.37;1.70;;;10.70;1.00;;;;;;5032933;28;20414;-73
2022/10/02 03:24:40;;;;;;;7.07;2.13;;;10.70;1.00;;;;;;5033561;28;20398;-75
2022/10/02 03:27:09;;;;;;;1.93;1.50;;;10.70;1.00;;;;;;5034302;28;20888;-72
2022/10/02 03:29:46;;;;;;;2.83;1.70;;;10.70;1.00;;;;;;5032418;28;20444;-73
2022/10/02 03:32:14;;;;;;;4.63;1.60;;;10.70;1.00;;;;;;5032730;28;20400;-74
2022/10/02 03:34:40;;;;;;;1.40;1.30;;;10.70;1.00;;;;;;5033164;28;20427;-74
2022/10/02 03:37:06;;;;;;;3.00;1.73;;;10.70;1.00;;;;;;5034052;28;20401;-72
2022/10/02 03:39:32;;;;;;;1.43;1.33;;;10.70;1.00;;;;;;5033414;28;20663;-74
2022/10/02 03:41:59;;;;;;;3.00;1.70;;;10.70;1.00;;;;;;5033965;28;20406;-74
2022/10/02 03:44:24;;;;;;;3.63;1.40;;;10.60;1.00;;;;;;5033118;28;20250;-72
2022/10/02 03:46:50;;;;;;;8.03;2.50;;;10.70;1.00;;;;;;5033785;28;20501;-74
2022/10/02 03:49:16;;;;;;;6.27;2.20;;;10.70;1.00;;;;;;5033166;28;20201;-75
2022/10/02 03:51:41;;;;;;;2.70;2.07;;;10.70;1.00;;;;;;5035819;28;20182;-72
2022/10/02 03:54:19;;;;;;;5.20;1.90;;;10.70;1.00;;;;;;5052678;28;20167;-72
2022/10/02 03:56:58;;;;;;;4.70;1.80;;;10.80;1.00;;;;;;5053538;28;20217;-74
2022/10/02 03:59:31;;;;;;;3.33;2.07;;;10.80;1.00;;;;;;5050195;28;20419;-70
2022/10/02 04:02:00;;;;;;;2.60;1.50;;;10.80;1.00;;;;;;5050388;28;20480;-74
2022/10/02 04:04:36;;;;;;;3.53;2.80;;;10.80;1.00;;;;;;5052831;28;20410;-74
2022/10/02 04:07:10;;;;;;;10.07;2.57;;;10.90;1.00;;;;;;5053488;28;20376;-73
2022/10/02 04:09:41;;;;;;;3.13;1.90;;;11.00;1.00;;;;;;5051425;28;20458;-73
2022/10/02 04:12:27;;;;;;;8.33;2.33;;;11.00;1.00;;;;;;5052991;28;20376;-72
2022/10/02 04:15:14;;;;;;;4.47;1.70;;;11.00;15.90;;;;;;5052498;28;20380;-70
2022/10/02 04:17:46;;;;;;;5.83;2.57;;;11.10;26.10;;;;;;5052334;28;20433;-75
2022/10/02 04:20:22;;;;;;;2.50;2.30;;;11.20;24.00;;;;;;5043955;28;20457;-72
2022/10/02 04:23:10;;;;;;;4.43;2.77;;;11.20;24.10;;;;;;5047735;28;20781;-75
2022/10/02 04:25:41;;;;;;;2.90;2.43;;;11.30;32.50;;;;;;5052380;28;20495;-72
2022/10/02 04:28:16;;;;;;;4.23;2.37;;;11.20;28.00;;;;;;5052824;28;20412;-75
2022/10/02 04:30:42;;;;;;;5.03;2.30;;;11.20;48.30;;;;;;5040240;28;20458;-74
2022/10/02 04:33:19;;;;;;;4.33;1.97;;;11.30;63.20;;;;;;5033482;28;20424;-71
2022/10/02 04:36:03;;;;;;;11.03;2.60;;;11.30;76.20;;;;;;5032525;28;20822;-71
2022/10/02 04:38:51;;;;;;;5.70;3.10;;;11.20;74.30;;;;;;5031972;28;20414;-72
2022/10/02 04:41:53;;;;;;;3.70;1.80;;;11.30;79.30;;;;;;5032528;28;20515;-72
2022/10/02 04:44:34;;;;;;;5.83;2.07;;;11.20;68.00;;;;;;5032172;28;20930;-71
2022/10/02 04:47:31;;;;;;;2.40;2.03;;;11.20;77.00;;;;;;5032694;28;20377;-71
2022/10/02 04:50:15;;;;;;;4.40;2.43;;;11.10;62.70;;;;;;5031483;28;20446;-73
2022/10/02 04:52:51;;;;;;;2.60;1.80;;;11.10;60.00;;;;;;5033000;28;20481;-73
2022/10/02 04:55:38;;;;;;;6.20;2.60;;;11.00;67.70;;;;;;5031044;28;20426;-71
2022/10/02 04:58:23;;;;;;;2.50;1.93;;;11.00;66.30;;;;;;5033055;28;20404;-73
2022/10/02 05:01:12;;;;;;;2.57;1.80;;;11.00;56.60;;;;;;5037488;28;20428;-72
2022/10/02 05:03:53;;;;;;;2.30;2.03;;;11.00;55.30;;;;;;5050628;28;20781;-75
2022/10/02 05:06:40;;;;;;;2.10;1.80;;;10.90;52.80;;;;;;5051420;28;20428;-72
2022/10/02 05:09:19;;;;;;;5.03;2.10;;;10.90;46.10;;;;;;5053848;28;20383;-73
2022/10/02 05:12:28;;;;;;;2.97;2.70;;;10.90;38.10;;;;;;5052666;28;20495;-73
2022/10/02 05:14:58;;;;;;;3.07;2.40;;;10.90;50.70;;;;;;5040309;28;20428;-73
2022/10/02 05:18:06;;;;;;;1.60;1.50;;;10.90;50.80;;;;;;5056540;28;20380;-72
2022/10/02 05:21:00;;;;;;;3.40;2.10;;;10.80;40.30;;;;;;5045604;28;20416;-72
2022/10/02 05:23:42;;;;;;;3.50;1.80;;;10.80;36.10;;;;;;5036338;28;20853;-74
2022/10/02 05:26:30;;;;;;;2.30;1.93;;;10.70;33.10;;;;;;5035346;28;20502;-73
2022/10/02 05:29:08;;;;;;;4.50;2.03;;;10.70;32.70;;;;;;5036399;28;20886;-71
2022/10/02 05:32:28;;;;;;;4.07;2.10;;;10.70;39.40;;;;;;5035020;28;20440;-73
2022/10/02 05:35:00;;;;;;;6.03;2.27;;;10.80;46.20;;;;;;5053077;28;20407;-74
2022/10/02 05:38:03;;;;;;;2.00;1.80;;;10.80;48.50;;;;;;5034583;28;20993;-75
2022/10/02 05:40:56;;;;;;;3.17;2.60;;;10.90;54.00;;;;;;5043140;28;20434;-74
2022/10/02 05:43:46;;;;;;;5.60;2.90;;;10.90;47.20;;;;;;5055991;28;20384;-73
2022/10/02 05:46:23;;;;;;;2.23;2.07;;;11.00;65.00;;;;;;5056077;28;20388;-72
2022/10/02 05:49:10;;;;;;;6.90;2.33;;;11.00;69.50;;;;;;5055825;28;20417;-74
2022/10/02 05:52:09;;;;;;;3.80;2.10;;;11.10;69.00;;;;;;5037032;28;20783;-70
2022/10/02 05:54:57;;;;;;;3.87;2.93;;;11.10;72.00;;;;;;5035364;28;20423;-70
2022/10/02 05:57:30;;;;;;;4.40;2.73;;;11.20;77.00;;;;;;5036073;28;20392;-69
2022/10/02 06:00:01;;;;;;;2.97;2.40;;;11.20;75.20;;;;;;5035888;28;20492;-71
2022/10/02 06:02:45;;;;;;;3.87;2.83;;;11.20;79.40;;;;;;5055636;28;20429;-71
2022/10/02 06:05:34;;;;;;;2.80;2.60;;;11.30;81.40;;;;;;5054592;28;20414;-72
2022/10/02 06:08:06;;;;;;;7.07;2.60;;;11.20;83.90;;;;;;5055668;28;20380;-69
2022/10/02 06:10:40;;;;;;;5.13;2.40;;;11.20;89.30;;;;;;5049131;28;20433;-69
2022/10/02 06:13:20;;;;;;;6.13;2.20;;;11.30;93.50;;;;;;5035074;28;20389;-73
2022/10/02 06:15:54;;;;;;;3.00;2.30;;;11.40;99.90;;;;;;5033411;28;20409;-69
2022/10/02 06:18:27;;;;;;;3.20;2.97;;;11.40;99.90;;;;;;5035447;28;20497;-70
2022/10/02 06:21:01;;;;;;;3.93;2.73;;;11.50;99.90;;;;;;5033075;28;20500;-70
2022/10/02 06:23:34;;;;;;;5.37;3.00;;;11.50;99.90;;;;;;5033839;28;20741;-69
2022/10/02 06:26:14;;;;;;;8.03;3.20;;;11.60;99.90;;;;;;5033659;28;20434;-72
2022/10/02 06:28:44;;;;;;;7.13;3.80;;;11.60;99.90;;;;;;5034433;28;20471;-71
2022/10/02 06:31:21;;;;;;;4.33;3.30;;;11.60;99.90;;;;;;5034526;28;20452;-70
2022/10/02 06:33:47;;;;;;;6.90;3.33;;;11.60;99.90;;;;;;5032688;28;20401;-70
2022/10/02 06:36:52;;;;;;;5.50;2.90;;;11.60;99.90;;;;;;5041798;28;20423;-70
2022/10/02 06:39:36;;;;;;;5.33;3.23;;;11.60;99.90;;;;;;5050676;28;20419;-72
2022/10/02 06:42:23;;;;;;;5.23;3.60;;;11.60;99.90;;;;;;5053901;28;20832;-69
2022/10/02 06:45:02;;;;;;;9.33;3.40;;;11.60;99.90;;;;;;5054077;28;20395;-71
2022/10/02 06:47:42;;;;;;;6.43;3.50;;;11.70;99.90;;;;;;5035839;28;20420;-71
2022/10/02 06:50:27;;;;;;;5.20;2.50;;;11.70;99.90;;;;;;5034733;28;20882;-72
2022/10/02 06:52:55;;;;;;;9.50;5.23;;;11.70;99.90;;;;;;5034601;28;20419;-70
2022/10/02 06:55:49;;;;;;;4.53;2.83;;;11.80;99.90;;;;;;5033703;28;20389;-72
2022/10/02 06:58:22;;;;;;;4.10;3.07;;;11.90;99.90;;;;;;5043097;28;20457;-70
2022/10/02 07:01:13;;;;;;;7.60;2.50;;;11.90;99.90;;;;;;5034544;28;20949;-72
2022/10/02 07:03:39;;;;;;;6.17;3.47;;;12.00;99.90;;;;;;5043040;28;20457;-70
2022/10/02 07:06:13;;;;;;;3.00;2.70;;;12.00;99.90;;;;;;5047926;28;20962;-71
2022/10/02 07:08:54;;;;;;;5.60;3.13;;;12.00;99.90;;;;;;5054027;28;20377;-69
2022/10/02 07:11:39;;;;;;;7.60;3.10;;;12.10;99.90;;;;;;5054269;28;20377;-69
2022/10/02 07:14:42;;;;;;;4.97;2.30;;;12.10;99.90;;;;;;5052207;28;20391;-70
2022/10/02 07:17:29;;;;;;;13.50;3.27;;;12.10;99.90;;;;;;5033093;28;20373;-70
2022/10/02 07:20:29;;;;;;;3.73;2.40;;;12.10;99.90;;;;;;5034283;28;20436;-71
2022/10/02 07:23:20;;;;;;;7.93;2.07;;;12.00;99.90;;;;;;5034353;28;20476;-69
2022/10/02 07:26:06;;;;;;;4.20;3.40;;;12.00;99.90;;;;;;5030433;28;20968;-72
2022/10/02 07:29:10;;;;;;;5.53;2.43;;;12.10;99.90;;;;;;5034104;28;20394;-72
2022/10/02 07:32:00;;;;;;;2.90;2.40;;;12.10;99.90;;;;;;5033116;28;20413;-69
2022/10/02 07:35:01;;;;;;;2.50;2.30;;;12.20;99.90;;;;;;5031296;28;20400;-72
2022/10/02 07:37:56;;;;;;;3.20;2.27;;;12.20;99.90;;;;;;5052895;28;20435;-74
2022/10/02 07:40:46;;;;;;;6.80;2.80;;;12.20;99.90;;;;;;5054019;28;20433;-72
2022/10/02 07:43:21;;;;;;;7.20;3.20;;;12.20;99.90;;;;;;5053969;28;20393;-73
2022/10/02 07:46:20;;;;;;;7.73;3.00;;;12.20;99.90;;;;;;5038963;28;20932;-71
2022/10/02 07:49:13;;;;;;;4.47;2.30;;;12.30;99.90;;;;;;5033749;28;20399;-71
2022/10/02 07:51:48;;;;;;;3.70;2.70;;;12.40;98.00;;;;;;5033795;28;20393;-72
2022/10/02 07:54:29;;;;;;;3.73;2.43;;;12.70;99.80;;;;;;5031646;28;20951;-69
2022/10/02 07:57:03;;;;;;;6.03;2.80;;;12.80;99.90;;;;;;5032471;28;20445;-72
2022/10/02 07:59:31;;;;;;;7.23;2.90;;;12.80;99.90;;;;;;5033671;28;20369;-70
2022/10/02 08:01:58;;;;;;;6.23;2.23;;;12.80;96.50;;;;;;5033350;28;20495;-71
2022/10/02 08:04:28;;;;;;;6.70;2.70;;;12.60;83.10;;;;;;5032490;28;20416;-71
2022/10/02 08:07:02;;;;;;;4.23;2.43;;;12.40;82.40;;;;;;5049388;28;20458;-69
2022/10/02 08:09:46;;;;;;;6.63;2.90;;;12.40;83.30;;;;;;5053372;28;20456;-70
2022/10/02 08:12:37;;;;;;;2.90;2.20;;;12.40;74.90;;;;;;5053387;28;20387;-71
2022/10/02 08:15:05;;;;;;;5.83;2.90;;;12.40;85.90;;;;;;5050929;28;20417;-71
2022/10/02 08:17:54;;;;;;;6.60;2.03;;;12.50;94.40;;;;;;5053352;28;20456;-71
2022/10/02 08:20:35;;;;;;;9.07;2.50;;;12.70;91.90;;;;;;5053278;28;20409;-71
2022/10/02 08:23:21;;;;;;;12.37;3.93;;;12.70;94.20;;;;;;5053004;28;20488;-72
2022/10/02 08:25:54;;;;;;;4.40;2.70;;;12.80;90.50;;;;;;5050845;28;20438;-71
2022/10/02 08:28:46;;;;;;;6.90;2.40;;;12.80;88.90;;;;;;5053291;28;20406;-70
2022/10/02 08:31:13;;;;;;;5.73;2.20;;;12.90;82.60;;;;;;5052676;28;20544;-70
2022/10/02 08:33:39;;;;;;;7.63;2.13;;;13.00;78.90;;;;;;5051954;28;20437;-72
2022/10/02 08:36:19;;;;;;;6.53;2.30;;;13.00;69.10;;;;;;5051085;28;20424;-69
2022/10/02 08:38:49;;;;;;;5.90;3.23;;;13.20;59.40;;;;;;5053114;28;20755;-69
2022/10/02 08:41:40;;;;;;;8.40;2.30;;;13.30;42.40;;;;;;5053019;28;20383;-71
2022/10/02 08:44:24;;;;;;;5.40;1.90;;;13.30;44.30;;;;;;5053224;28;20401;-69
2022/10/02 08:46:57;;;;;;;4.53;1.80;;;13.50;33.80;;;;;;5050640;28;20441;-69
2022/10/02 08:49:40;;;;;;;3.97;2.00;;;13.50;11.20;;;;;;5056661;28;20415;-70
2022/10/02 08:52:59;;;;;;;8.13;1.87;;;13.50;1.00;;;;;;5057055;28;20487;-72
2022/10/02 08:55:47;;;;;;;11.40;2.70;;;13.50;1.00;;;;;;5036155;28;20450;-70
2022/10/02 08:58:40;;;;;;;7.23;2.20;;;13.70;1.00;;;;;;5036992;28;20440;-69
2022/10/02 09:01:20;;;;;;;6.97;2.23;;;13.80;1.00;;;;;;5035298;28;20434;-70
2022/10/02 09:04:09;;;;;;;2.67;1.50;;;14.00;1.00;;;;;;5034846;28;20433;-70
2022/10/02 09:06:56;;;;;;;4.63;2.20;;;14.20;1.00;;;;;;5047427;28;20472;-68
2022/10/02 09:09:57;;;;;;;5.47;1.90;;;14.40;1.00;;;;;;5056685;28;20494;-70
2022/10/02 09:12:36;;;;;;;6.40;1.47;;;14.60;1.00;;;;;;5056588;28;20396;-70
2022/10/02 09:15:43;;;;;;;4.07;2.20;;;14.80;1.00;;;;;;5053287;28;20412;-68
2022/10/02 09:18:21;;;;;;;11.10;2.40;;;15.00;1.00;;;;;;5049409;28;20433;-71
2022/10/02 09:21:29;;;;;;;15.03;2.07;;;15.30;1.00;;;;;;5056396;28;20412;-70
2022/10/02 09:24:06;;;;;;;12.80;2.50;;;15.60;1.00;;;;;;5052998;28;20409;-70
2022/10/02 09:26:56;;;;;;;5.80;2.70;;;15.70;99.90;;;;;;5041423;28;20481;-71
2022/10/02 09:29:56;;;;;;;5.93;1.90;;;15.80;99.90;;;;;;5036451;28;20759;-70
2022/10/02 09:32:41;;;;;;;5.03;2.30;;;16.00;99.90;;;;;;5034396;28;20450;-70
2022/10/02 09:35:15;;;;;;;11.30;2.23;;;16.20;99.90;;;;;;5036874;28;20441;-71
2022/10/02 09:38:20;;;;;;;14.83;2.73;;;16.40;99.90;;;;;;5054788;28;20516;-69
2022/10/02 09:40:54;;;;;;;12.80;2.30;;;16.50;99.90;;;;;;5056160;28;20397;-67
2022/10/02 09:43:50;;;;;;;3.30;1.50;;;16.70;99.90;;;;;;5054925;28;20409;-68
2022/10/02 09:46:25;;;;;;;6.03;1.53;;;17.10;99.90;;;;;;5041704;28;20442;-69
2022/10/02 09:48:58;;;;;;;3.77;1.60;;;17.30;99.90;;;;;;5034852;28;20449;-72
2022/10/02 09:51:41;;;;;;;13.57;2.50;;;17.20;99.90;;;;;;5036084;28;20430;-71
2022/10/02 09:54:25;;;;;;;3.63;1.43;;;16.90;98.40;;;;;;5034968;28;20410;-68
2022/10/02 09:57:10;;;;;;;8.23;2.00;;;17.00;94.80;;;;;;5050622;28;20480;-69
2022/10/02 10:00:15;;;;;;;4.33;1.60;;;16.80;91.40;;;;;;5055830;28;20894;-69
2022/10/02 10:03:14;;;;;;;10.10;1.97;;;16.80;47.90;;;;;;5055081;28;20471;-68
2022/10/02 10:05:58;;;;;;;8.77;2.20;;;17.30;86.90;;;;;;5052786;28;20515;-68
2022/10/02 10:08:46;;;;;;;5.43;2.10;;;17.90;55.20;;;;;;5055611;28;20404;-71
2022/10/02 10:11:31;;;;;;;8.03;1.77;;;18.20;1.00;;;;;;5055375;28;20469;-68
2022/10/02 10:14:17;;;;;;;4.70;1.57;;;17.90;1.00;;;;;;5052485;28;20667;-72
2022/10/02 10:17:07;;;;;;;11.57;2.40;;;17.30;1.00;;;;;;5054266;28;20433;-71
2022/10/02 10:19:36;;;;;;;5.27;1.40;;;16.80;1.00;;;;;;5055375;28;20954;-71
2022/10/02 10:22:38;;;;;;;8.23;1.60;;;16.50;1.00;;;;;;5055432;28;20409;-70
2022/10/02 10:25:16;;;;;;;9.23;1.73;;;16.30;1.00;;;;;;5033754;28;20545;-73
2022/10/02 10:28:04;;;;;;;3.20;1.63;;;16.10;1.00;;;;;;5035483;28;20406;-71
2022/10/02 10:30:51;;;;;;;6.90;2.50;;;15.90;1.00;;;;;;5035172;28;20450;-69
2022/10/02 10:34:01;;;;;;;7.17;1.67;;;16.00;1.00;;;;;;5041819;28;20429;-69
2022/10/02 10:39:42;;;;;;;4.43;1.77;;;16.30;1.00;;;;;;5055170;28;20828;-72
2022/10/02 10:42:07;;;;;;;8.10;3.00;;;16.10;1.00;;;;;;5053830;28;20766;-71
2022/10/02 10:44:54;;;;;;;6.83;2.17;;;15.90;1.00;;;;;;5033910;28;20441;-68
2022/10/02 10:47:26;;;;;;;12.00;2.50;;;15.60;1.00;;;;;;5035069;28;20206;-71
2022/10/02 10:50:31;;;;;;;9.23;1.90;;;15.40;1.00;;;;;;5034514;28;20449;-68
2022/10/02 10:53:27;;;;;;;13.10;2.23;;;15.60;17.40;;;;;;5043850;28;20447;-72
2022/10/02 10:56:07;;;;;;;4.70;1.70;;;15.80;14.20;;;;;;5034214;28;20416;-69
2022/10/02 10:58:56;;;;;;;7.60;1.63;;;15.70;8.80;;;;;;5034907;28;20399;-68
2022/10/02 11:01:42;;;;;;;4.97;1.77;;;15.60;5.20;;;;;;5042827;28;20476;-68
2022/10/02 11:04:40;;;;;;;4.93;1.53;;;15.30;1.00;;;;;;5033121;28;20466;-68
2022/10/02 11:07:34;;;;;;;9.87;1.90;;;15.30;1.00;;;;;;5034450;28;20369;-72
2022/10/02 11:10:06;;;;;;;2.43;1.40;;;15.10;1.00;;;;;;5033878;28;20864;-68
2022/10/02 11:12:50;;;;;;;4.20;1.63;;;15.10;1.00;;;;;;5033878;28;20887;-71
2022/10/02 11:15:58;;;;;;;3.47;1.20;;;15.40;1.00;;;;;;5033544;28;20520;-72
2022/10/02 11:18:58;;;;;;;7.30;2.40;;;15.70;1.00;;;;;;5034530;28;20398;-68
2022/10/02 11:21:45;;;;;;;1.80;1.30;;;15.90;1.00;;;;;;5034802;28;20764;-71
2022/10/02 11:24:20;;;;;;;3.87;1.80;;;15.80;1.00;;;;;;5032819;28;20430;-69
2022/10/02 11:27:07;;;;;;;3.03;1.47;;;15.80;1.00;;;;;;5033767;28;20396;-68
2022/10/02 11:30:00;;;;;;;4.80;1.63;;;15.90;1.00;;;;;;5032633;28;20895;-71
2022/10/02 11:32:44;;;;;;;5.37;1.47;;;16.00;1.00;;;;;;5032861;28;20429;-69
2022/10/02 11:35:18;;;;;;;5.43;1.50;;;16.20;1.00;;;;;;5033084;28;20456;-68
2022/10/02 11:37:56;;;;;;;2.30;1.30;;;16.30;1.00;;;;;;5051066;28;20457;-71
2022/10/02 11:41:03;;;;;;;8.03;1.93;;;16.40;1.00;;;;;;5054100;28;20846;-72
2022/10/02 11:44:08;;;;;;;5.90;1.90;;;16.50;1.00;;;;;;5051006;28;20869;-72
2022/10/02 11:46:54;;;;;;;3.70;1.90;;;16.40;1.00;;;;;;5051778;28;20432;-68
2022/10/02 11:49:43;;;;;;;5.00;1.70;;;16.50;1.00;;;;;;5052736;28;20484;-71
2022/10/02 11:52:40;;;;;;;3.43;1.70;;;16.80;1.00;;;;;;5052366;28;20957;-71
2022/10/02 11:55:36;;;;;;;4.00;1.40;;;17.00;1.00;;;;;;5038673;28;20480;-71
2022/10/02 11:58:43;;;;;;;10.87;2.57;;;16.80;1.00;;;;;;5032724;28;20423;-69
2022/10/02 12:02:01;;;;;;;7.60;2.10;;;16.30;1.00;;;;;;5033639;28;20394;-72
2022/10/02 12:04:32;;;;;;;7.37;1.70;;;16.00;1.00;;;;;;5050372;28;20456;-72
2022/10/02 12:07:17;;;;;;;12.53;2.43;;;16.10;1.00;;;;;;5052355;28;20449;-72
2022/10/02 12:09:57;;;;;;;6.90;1.93;;;16.30;21.00;;;;;;5042306;28;20462;-73
2022/10/02 12:12:35;;;;;;;8.03;2.00;;;16.60;13.80;;;;;;5037604;28;20422;-72
2022/10/02 12:15:15;;;;;;;5.97;1.80;;;16.90;25.90;;;;;;5032516;28;20479;-72
2022/10/02 12:17:56;;;;;;;5.63;1.60;;;17.10;26.10;;;;;;5032184;28;20403;-73
2022/10/02 12:29:42;;;;;;;9.10;2.23;;;19.60;1.00;;;;;;5037859;28;20432;-73
2022/10/02 12:32:51;;;;;;;5.93;1.23;;;20.80;1.00;;;;;;5035343;28;20441;-72
2022/10/02 12:35:32;;;;;;;7.30;2.03;;;22.10;1.00;;;;;;5050210;28;20417;-72
2022/10/02 12:38:19;;;;;;;7.20;1.67;;;22.80;1.00;;;;;;5051332;28;20413;-73
2022/10/02 12:40:55;;;;;;;10.40;1.90;;;23.10;1.00;;;;;;5042139;28;20798;-72
2022/10/02 12:44:09;;;;;;;4.90;1.73;;;23.20;1.00;;;;;;5036053;28;20437;-73
2022/10/02 12:46:48;;;;;;;3.20;1.30;;;23.40;1.00;;;;;;5046615;28;20453;-72
2022/10/02 12:49:24;;;;;;;3.23;1.20;;;23.70;1.00;;;;;;5053210;28;20486;-73
2022/10/02 12:52:14;;;;;;;4.90;1.80;;;23.90;1.00;;;;;;5050073;28;20405;-74
2022/10/02 12:55:07;;;;;;;2.07;1.87;;;23.60;1.00;;;;;;5052056;28;20857;-75
2022/10/02 12:57:52;;;;;;;4.63;1.30;;;23.70;1.00;;;;;;5052657;28;20397;-74
2022/10/02 13:00:19;;;;;;;4.23;1.50;;;24.20;1.00;;;;;;5052938;28;20462;-75
2022/10/02 13:03:04;;;;;;;3.47;1.50;;;24.80;1.00;;;;;;5048007;28;20433;-74
2022/10/02 13:05:30;;;;;;;8.13;1.53;;;24.30;1.00;;;;;;5051912;28;20413;-74
2022/10/02 13:08:09;;;;;;;2.60;1.60;;;24.30;1.00;;;;;;5052914;28;20398;-75
2022/10/02 13:10:46;;;;;;;6.43;1.60;;;24.20;1.00;;;;;;5052733;28;20483;-72
2022/10/02 13:13:12;;;;;;;5.17;1.60;;;23.00;1.00;;;;;;5052827;28;20493;-72
2022/10/02 13:15:45;;;;;;;3.93;1.73;;;22.60;1.00;;;;;;5051268;28;20513;-71
2022/10/02 13:18:42;;;;;;;4.23;1.40;;;23.20;1.00;;;;;;5052155;28;20890;-73
2022/10/02 13:21:26;;;;;;;4.77;2.00;;;24.40;1.00;;;;;;5032982;28;20414;-73
2022/10/02 13:24:12;;;;;;;3.80;1.20;;;25.30;1.00;;;;;;5031891;28;20394;-74
2022/10/02 13:26:55;;;;;;;4.30;1.70;;;26.30;1.00;;;;;;5036375;28;20453;-73
2022/10/02 13:29:43;;;;;;;5.03;1.30;;;26.50;1.00;;;;;;5052547;28;20412;-73
2022/10/02 13:32:18;;;;;;;8.03;1.97;;;26.10;1.00;;;;;;5044405;28;20532;-74
2022/10/02 13:35:10;;;;;;;9.00;2.00;;;26.20;1.00;;;;;;5038465;28;20436;-73
2022/10/02 13:38:17;;;;;;;5.20;1.50;;;26.30;1.00;;;;;;5045796;28;20397;-71
2022/10/02 13:41:13;;;;;;;3.33;1.30;;;26.00;1.00;;;;;;5054389;28;20740;-74
2022/10/02 13:43:47;;;;;;;2.83;1.00;;;26.40;1.00;;;;;;5038765;28;20461;-73
2022/10/02 13:46:50;;;;;;;10.87;1.67;;;25.60;1.00;;;;;;5045994;28;20440;-74
2022/10/02 13:49:21;;;;;;;6.20;1.70;;;25.40;1.00;;;;;;5038696;28;20437;-72
2022/10/02 13:52:06;;;;;;;4.53;1.73;;;24.00;1.00;;;;;;5049830;28;20432;-72
2022/10/02 13:55:01;;;;;;;10.13;1.50;;;22.50;1.00;;;;;;5048594;28;20999;-70
2022/10/02 13:57:54;;;;;;;7.77;1.87;;;21.20;1.00;;;;;;5049020;28;20917;-71
2022/10/02 14:00:58;;;;;;;9.67;1.60;;;19.70;1.00;;;;;;5040942;28;20842;-72
2022/10/02 14:03:47;;;;;;;3.70;1.30;;;18.90;1.00;;;;;;5046238;28;20448;-69
2022/10/02 14:06:19;;;;;;;4.60;1.40;;;18.20;1.00;;;;;;5055745;28;20452;-73
2022/10/02 14:09:00;;;;;;;4.90;1.53;;;17.60;1.00;;;;;;5055589;28;20480;-74
2022/10/02 14:11:42;;;;;;;9.03;2.33;;;17.00;1.00;;;;;;5050687;28;20520;-72
2022/10/02 14:14:55;;;;;;;9.20;3.97;;;16.70;1.00;;;;;;5051153;28;20739;-71
2022/10/02 14:17:23;;;;;;;5.27;1.67;;;16.30;1.00;;;;;;5053511;28;20813;-72
2022/10/02 14:20:04;;;;;;;6.60;1.77;;;16.10;1.00;;;;;;5055328;28;20894;-73
2022/10/02 14:23:07;;;;;;;5.23;1.60;;;16.30;1.00;;;;;;5053096;28;20431;-74
2022/10/02 14:25:58;;;;;;;3.30;1.70;;;16.40;1.00;;;;;;5052838;28;20445;-71